createdAt,value
2022-11-05T00:01:43.905Z,7.96
2022-11-05T00:04:04.403Z,8.00
2022-11-05T00:06:25.953Z,7.98
2022-11-05T00:08:46.554Z,8.21
2022-11-05T00:10:54.654Z,8.28
2022-11-05T00:13:18.021Z,8.25
2022-11-05T00:15:38.521Z,8.22
2022-11-05T00:17:46.781Z,8.24
2022-11-05T00:19:54.875Z,8.32
2022-11-05T00:22:15.013Z,8.19
2022-11-05T00:24:36.026Z,8.18
2022-11-05T00:26:44.220Z,8.21
2022-11-05T00:28:55.080Z,8.14
2022-11-05T00:31:04.845Z,8.20
2022-11-05T00:33:15.110Z,8.19
2022-11-05T00:35:26.420Z,8.14
2022-11-05T00:37:35.762Z,8.12
2022-11-05T00:39:43.895Z,8.04
2022-11-05T00:42:13.164Z,8.08
2022-11-05T00:44:36.151Z,8.21
2022-11-05T00:46:44.737Z,8.25
2022-11-05T00:49:08.292Z,8.28
2022-11-05T00:51:16.383Z,8.36
2022-11-05T00:53:25.724Z,8.28
2022-11-05T00:55:38.345Z,8.23
2022-11-05T00:57:46.604Z,8.28
2022-11-05T00:59:57.405Z,8.29
2022-11-05T01:02:05.565Z,8.31
2022-11-05T01:04:14.226Z,8.32
2022-11-05T01:06:22.732Z,8.32
2022-11-05T01:08:31.434Z,8.28
2022-11-05T01:10:44.708Z,8.36
2022-11-05T01:12:53.094Z,8.32
2022-11-05T01:15:04.311Z,8.34
2022-11-05T01:17:12.542Z,8.33
2022-11-05T01:19:20.617Z,8.48
2022-11-05T01:21:28.665Z,8.36
2022-11-05T01:23:36.932Z,8.33
2022-11-05T01:25:45.904Z,8.27
2022-11-05T01:27:54.281Z,8.21
2022-11-05T01:30:08.318Z,8.27
2022-11-05T01:32:17.481Z,8.29
2022-11-05T01:34:25.903Z,8.36
2022-11-05T01:36:34.543Z,8.38
2022-11-05T01:38:43.556Z,8.35
2022-11-05T01:40:51.988Z,8.34
2022-11-05T01:43:00.349Z,8.28
2022-11-05T01:45:20.050Z,8.26
2022-11-05T01:47:36.687Z,8.26
2022-11-05T01:49:48.008Z,8.36
2022-11-05T01:51:57.404Z,8.36
2022-11-05T01:54:08.747Z,8.23
2022-11-05T01:56:20.176Z,8.24
2022-11-05T01:58:34.384Z,8.29
2022-11-05T02:00:47.495Z,8.35
2022-11-05T02:02:55.915Z,8.25
2022-11-05T02:05:09.697Z,8.26
2022-11-05T02:07:18.529Z,8.32
2022-11-05T02:09:30.730Z,8.36
2022-11-05T02:11:38.776Z,8.33
2022-11-05T02:13:47.353Z,8.34
2022-11-05T02:16:06.017Z,8.24
2022-11-05T02:18:23.664Z,8.30
2022-11-05T02:20:37.704Z,8.28
2022-11-05T02:23:15.468Z,8.25
2022-11-05T02:25:48.105Z,8.21
2022-11-05T02:28:26.325Z,8.18
2022-11-05T02:30:46.754Z,8.16
2022-11-05T02:33:13.222Z,8.25
2022-11-05T02:35:34.750Z,8.26
2022-11-05T02:37:44.999Z,8.19
2022-11-05T02:40:00.170Z,8.26
2022-11-05T02:42:19.892Z,8.19
2022-11-05T02:44:37.381Z,8.11
2022-11-05T02:46:54.585Z,7.95
2022-11-05T02:49:11.724Z,8.11
2022-11-05T02:51:26.461Z,8.15
2022-11-05T02:53:43.485Z,8.07
2022-11-05T02:55:59.539Z,8.23
2022-11-05T02:58:08.637Z,8.26
2022-11-05T03:00:52.254Z,8.20
2022-11-05T03:03:03.048Z,8.26
2022-11-05T03:05:12.848Z,8.28
2022-11-05T03:07:33.001Z,8.35
2022-11-05T03:10:08.893Z,8.39
2022-11-05T03:12:29.910Z,8.31
2022-11-05T03:14:47.208Z,8.33
2022-11-05T03:17:01.393Z,8.31
2022-11-05T03:19:20.273Z,8.36
2022-11-05T03:21:42.684Z,8.34
2022-11-05T03:23:57.836Z,8.31
2022-11-05T03:26:11.385Z,8.33
2022-11-05T03:28:25.224Z,8.39
2022-11-05T03:30:35.639Z,8.43
2022-11-05T03:32:51.088Z,8.36
2022-11-05T03:35:09.040Z,8.33
2022-11-05T03:37:21.019Z,8.32
2022-11-05T03:39:33.314Z,8.30
2022-11-05T03:41:45.134Z,8.27
2022-11-05T03:43:58.365Z,8.36
2022-11-05T03:46:12.025Z,8.31
2022-11-05T03:48:22.479Z,8.37
2022-11-05T03:50:41.430Z,8.29
2022-11-05T03:52:55.165Z,8.35
2022-11-05T03:55:03.523Z,8.30
2022-11-05T03:57:18.013Z,8.35
2022-11-05T03:59:27.081Z,8.26
2022-11-05T04:01:36.854Z,8.24
2022-11-05T04:03:46.493Z,8.27
2022-11-05T04:06:11.236Z,8.28
2022-11-05T04:08:33.291Z,8.32
2022-11-05T04:11:02.554Z,8.32
2022-11-05T04:13:28.699Z,8.25
2022-11-05T04:15:57.109Z,8.31
2022-11-05T04:18:02.837Z,8.31
2022-11-05T04:20:23.590Z,8.43
2022-11-05T04:22:48.450Z,8.35
2022-11-05T04:24:57.734Z,8.36
2022-11-05T04:27:05.715Z,8.45
2022-11-05T04:29:28.012Z,8.47
2022-11-05T04:31:36.073Z,8.39
2022-11-05T04:33:45.410Z,8.34
2022-11-05T04:35:53.594Z,8.33
2022-11-05T04:38:05.005Z,8.31
2022-11-05T04:40:13.787Z,8.19
2022-11-05T04:42:23.359Z,8.12
2022-11-05T04:44:32.170Z,8.12
2022-11-05T04:46:40.555Z,8.11
2022-11-05T04:48:48.749Z,8.12
2022-11-05T04:50:57.057Z,8.23
2022-11-05T04:53:08.061Z,8.14
2022-11-05T04:55:17.950Z,8.19
2022-11-05T04:57:30.994Z,8.07
2022-11-05T04:59:39.152Z,8.10
2022-11-05T05:02:11.527Z,8.06
2022-11-05T05:04:21.032Z,8.13
2022-11-05T05:06:29.260Z,8.07
2022-11-05T05:08:40.150Z,8.05
2022-11-05T05:10:48.200Z,8.11
2022-11-05T05:12:57.169Z,8.09
2022-11-05T05:15:05.370Z,8.12
2022-11-05T05:17:14.020Z,8.09
2022-11-05T05:19:22.079Z,8.06
2022-11-05T05:21:40.625Z,8.11
2022-11-05T05:23:52.561Z,8.05
2022-11-05T05:26:02.342Z,8.08
2022-11-05T05:28:11.196Z,7.98
2022-11-05T05:30:19.737Z,7.95
2022-11-05T05:32:28.755Z,7.89
2022-11-05T05:34:37.217Z,7.90
2022-11-05T05:36:45.366Z,7.99
2022-11-05T05:38:57.856Z,8.02
2022-11-05T05:41:06.431Z,7.97
2022-11-05T05:43:14.873Z,7.91
2022-11-05T05:45:23.064Z,7.89
2022-11-05T05:47:31.236Z,7.87
2022-11-05T05:49:39.293Z,7.89
2022-11-05T05:51:47.393Z,7.91
2022-11-05T05:53:58.800Z,7.90
2022-11-05T05:56:08.123Z,7.90
2022-11-05T05:58:16.436Z,7.98
2022-11-05T06:00:24.792Z,7.94
2022-11-05T06:02:33.712Z,7.97
2022-11-05T06:04:43.325Z,7.95
2022-11-05T06:06:53.099Z,7.95
2022-11-05T06:09:04.301Z,7.99
2022-11-05T06:11:12.750Z,7.96
2022-11-05T06:13:20.631Z,8.10
2022-11-05T06:15:34.611Z,8.13
2022-11-05T06:17:54.556Z,8.15
2022-11-05T06:20:02.628Z,8.03
2022-11-05T06:22:11.592Z,8.08
2022-11-05T06:24:22.628Z,8.01
2022-11-05T06:26:30.727Z,8.00
2022-11-05T06:28:47.846Z,7.97
2022-11-05T06:30:56.146Z,8.05
2022-11-05T06:33:08.866Z,8.08
2022-11-05T06:35:17.215Z,8.06
2022-11-05T06:37:25.338Z,8.14
2022-11-05T06:39:37.221Z,8.15
2022-11-05T06:42:11.899Z,8.08
2022-11-05T06:44:18.047Z,8.07
2022-11-05T06:46:26.225Z,8.07
2022-11-05T06:48:35.713Z,8.09
2022-11-05T06:50:48.902Z,8.04
2022-11-05T06:52:58.878Z,8.03
2022-11-05T06:55:10.349Z,8.22
2022-11-05T06:57:18.570Z,8.24
2022-11-05T06:59:27.153Z,8.14
2022-11-05T07:01:37.550Z,8.14
2022-11-05T07:03:49.207Z,8.15
2022-11-05T07:06:00.265Z,8.15
2022-11-05T07:08:09.125Z,8.15
2022-11-05T07:10:22.252Z,8.22
2022-11-05T07:12:34.191Z,8.19
2022-11-05T07:14:44.055Z,8.25
2022-11-05T07:16:56.344Z,8.32
2022-11-05T07:19:04.583Z,8.49
2022-11-05T07:21:13.276Z,8.61
2022-11-05T07:23:22.674Z,8.80
2022-11-05T07:25:35.158Z,9.10
2022-11-05T07:27:43.958Z,9.23
2022-11-05T07:29:54.802Z,9.23
2022-11-05T07:32:04.416Z,9.39
2022-11-05T07:34:16.757Z,9.44
2022-11-05T07:36:26.021Z,9.56
2022-11-05T07:38:34.266Z,9.52
2022-11-05T07:40:46.015Z,9.48
2022-11-05T07:42:57.755Z,9.47
2022-11-05T07:45:07.991Z,9.37
2022-11-05T07:47:16.069Z,9.34
2022-11-05T07:49:25.364Z,9.48
2022-11-05T07:51:33.772Z,9.43
2022-11-05T07:53:45.464Z,9.63
2022-11-05T07:55:57.434Z,9.91
2022-11-05T07:58:05.950Z,9.70
2022-11-05T08:00:17.568Z,9.70
2022-11-05T08:02:26.297Z,9.86
2022-11-05T08:04:34.752Z,9.93
2022-11-05T08:06:43.072Z,9.97
2022-11-05T08:08:51.139Z,9.90
2022-11-05T08:11:09.744Z,9.88
2022-11-05T08:13:18.451Z,9.70
2022-11-05T08:15:28.738Z,9.55
2022-11-05T08:17:37.264Z,9.47
2022-11-05T08:19:45.646Z,9.33
2022-11-05T08:21:53.729Z,9.21
2022-11-05T08:24:02.174Z,9.11
2022-11-05T08:26:15.137Z,9.09
2022-11-05T08:28:25.109Z,9.02
2022-11-05T08:30:36.779Z,8.99
2022-11-05T08:32:44.984Z,8.92
2022-11-05T08:34:53.173Z,8.93
2022-11-05T08:37:04.060Z,8.97
2022-11-05T08:39:16.980Z,9.04
2022-11-05T08:41:28.635Z,9.00
2022-11-05T08:43:36.903Z,8.93
2022-11-05T08:45:45.371Z,8.76
2022-11-05T08:47:53.796Z,8.53
2022-11-05T08:50:02.020Z,8.34
2022-11-05T08:52:13.662Z,8.21
2022-11-05T08:54:23.092Z,8.16
2022-11-05T08:56:33.863Z,8.09
2022-11-05T08:58:43.903Z,8.11
2022-11-05T09:00:53.370Z,8.08
2022-11-05T09:03:02.396Z,7.86
2022-11-05T09:05:13.271Z,7.87
2022-11-05T09:07:23.181Z,7.99
2022-11-05T09:09:31.386Z,7.93
2022-11-05T09:12:09.831Z,8.06
2022-11-05T09:14:10.765Z,8.18
2022-11-05T09:16:22.271Z,8.19
2022-11-05T09:18:30.996Z,8.06
2022-11-05T09:20:40.617Z,8.12
2022-11-05T09:22:49.332Z,8.31
2022-11-05T09:24:57.879Z,8.38
2022-11-05T09:27:10.393Z,8.54
2022-11-05T09:29:22.306Z,8.68
2022-11-05T09:31:30.629Z,8.60
2022-11-05T09:33:40.783Z,8.65
2022-11-05T09:35:49.380Z,8.63
2022-11-05T09:38:00.956Z,8.76
2022-11-05T09:40:10.659Z,8.76
2022-11-05T09:42:24.771Z,8.89
2022-11-05T09:44:44.625Z,8.84
2022-11-05T09:46:58.410Z,8.87
2022-11-05T09:49:10.812Z,8.76
2022-11-05T09:51:23.916Z,8.87
2022-11-05T09:53:32.814Z,8.78
2022-11-05T09:55:45.877Z,8.65
2022-11-05T09:58:00.688Z,8.84
2022-11-05T10:00:13.667Z,8.85
2022-11-05T10:02:25.636Z,8.78
2022-11-05T10:04:37.388Z,8.91
2022-11-05T10:06:49.958Z,9.10
2022-11-05T10:09:07.653Z,9.16
2022-11-05T10:11:21.448Z,9.27
2022-11-05T10:13:40.420Z,9.15
2022-11-05T10:15:58.986Z,9.28
2022-11-05T10:18:18.813Z,8.94
2022-11-05T10:20:36.198Z,8.87
2022-11-05T10:22:49.287Z,8.86
2022-11-05T10:24:58.956Z,8.93
2022-11-05T10:27:08.442Z,8.92
2022-11-05T10:29:29.863Z,8.95
2022-11-05T10:31:40.521Z,9.04
2022-11-05T10:33:52.371Z,9.09
2022-11-05T10:36:07.219Z,9.00
2022-11-05T10:38:17.443Z,9.09
2022-11-05T10:40:35.669Z,9.07
2022-11-05T10:42:55.334Z,9.08
2022-11-05T10:45:18.380Z,8.95
2022-11-05T10:47:50.267Z,9.10
2022-11-05T10:50:03.646Z,9.14
2022-11-05T10:52:24.379Z,9.19
2022-11-05T10:54:37.807Z,9.25
2022-11-05T10:56:46.054Z,9.22
2022-11-05T10:58:58.749Z,9.19
2022-11-05T11:01:13.716Z,9.02
2022-11-05T11:03:49.158Z,8.87
2022-11-05T11:06:03.446Z,8.76
2022-11-05T11:08:26.450Z,8.86
2022-11-05T11:10:38.432Z,8.86
2022-11-05T11:12:48.837Z,9.01
2022-11-05T11:15:04.159Z,9.04
2022-11-05T11:17:31.888Z,9.08
2022-11-05T11:19:41.501Z,9.26
2022-11-05T11:21:50.894Z,9.41
2022-11-05T11:24:01.157Z,9.40
2022-11-05T11:26:11.643Z,9.46
2022-11-05T11:28:25.407Z,9.42
2022-11-05T11:30:35.367Z,9.60
2022-11-05T11:32:46.192Z,9.65
2022-11-05T11:34:58.485Z,9.76
2022-11-05T11:37:12.901Z,9.86
2022-11-05T11:39:33.416Z,10.15
2022-11-05T11:41:46.653Z,10.39
2022-11-05T11:43:59.001Z,10.53
2022-11-05T11:46:16.479Z,10.64
2022-11-05T11:48:32.767Z,10.66
2022-11-05T11:50:45.629Z,10.51
2022-11-05T11:52:53.911Z,10.55
2022-11-05T11:55:21.997Z,11.03
2022-11-05T11:57:31.859Z,10.93
2022-11-05T12:00:07.365Z,10.79
2022-11-05T12:02:50.265Z,10.78
2022-11-05T12:05:25.466Z,10.57
2022-11-05T12:07:48.473Z,10.54
2022-11-05T12:10:11.087Z,10.61
2022-11-05T12:12:25.013Z,10.56
2022-11-05T12:14:46.643Z,10.59
2022-11-05T12:17:21.763Z,10.47
2022-11-05T12:19:54.765Z,10.27
2022-11-05T12:22:15.279Z,10.56
2022-11-05T12:24:38.580Z,10.76
2022-11-05T12:26:57.524Z,10.75
2022-11-05T12:29:35.561Z,10.93
2022-11-05T12:31:56.467Z,10.92
2022-11-05T12:34:23.002Z,11.15
2022-11-05T12:36:43.419Z,11.14
2022-11-05T12:39:19.408Z,10.91
2022-11-05T12:41:33.394Z,11.16
2022-11-05T12:43:54.144Z,11.22
2022-11-05T12:46:09.148Z,11.19
2022-11-05T12:48:36.711Z,11.20
2022-11-05T12:50:48.625Z,11.45
2022-11-05T12:53:21.897Z,11.22
2022-11-05T12:55:45.483Z,11.19
2022-11-05T12:58:10.512Z,11.33
2022-11-05T13:00:22.298Z,11.29
2022-11-05T13:02:36.988Z,11.12
2022-11-05T13:04:50.115Z,11.11
2022-11-05T13:06:59.011Z,11.04
2022-11-05T13:09:15.274Z,10.92
2022-11-05T13:11:31.136Z,10.88
2022-11-05T13:13:43.907Z,10.60
2022-11-05T13:15:58.830Z,10.49
2022-11-05T13:18:13.467Z,10.79
2022-11-05T13:20:26.198Z,10.78
2022-11-05T13:22:41.397Z,10.65
2022-11-05T13:24:52.539Z,10.57
2022-11-05T13:27:11.331Z,10.45
2022-11-05T13:29:26.175Z,10.29
2022-11-05T13:31:38.801Z,10.34
2022-11-05T13:33:50.482Z,10.22
2022-11-05T13:36:17.606Z,10.25
2022-11-05T13:38:41.246Z,10.05
2022-11-05T13:41:07.744Z,10.11
2022-11-05T13:43:38.879Z,10.11
2022-11-05T13:46:06.054Z,10.09
2022-11-05T13:49:01.664Z,10.19
2022-11-05T13:51:39.294Z,10.04
2022-11-05T13:54:10.988Z,10.05
2022-11-05T13:56:32.347Z,9.97
2022-11-05T13:59:06.904Z,9.90
2022-11-05T14:01:25.626Z,9.83
2022-11-05T14:03:34.466Z,9.74
2022-11-05T14:05:45.537Z,9.63
2022-11-05T14:07:55.663Z,9.78
2022-11-05T14:10:16.567Z,9.74
2022-11-05T14:12:28.762Z,9.63
2022-11-05T14:14:46.730Z,9.57
2022-11-05T14:16:57.823Z,9.53
2022-11-05T14:19:35.670Z,9.52
2022-11-05T14:21:53.022Z,9.45
2022-11-05T14:24:03.027Z,9.49
2022-11-05T14:26:23.404Z,9.30
2022-11-05T14:28:44.371Z,9.27
2022-11-05T14:30:56.944Z,9.29
2022-11-05T14:33:08.065Z,9.25
2022-11-05T14:35:39.707Z,9.18
2022-11-05T14:37:56.994Z,9.23
2022-11-05T14:40:32.035Z,9.15
2022-11-05T14:42:40.648Z,9.00
2022-11-05T14:45:04.574Z,9.05
2022-11-05T14:47:25.871Z,8.98
2022-11-05T14:49:38.663Z,9.01
2022-11-05T14:51:50.004Z,8.84
2022-11-05T14:54:06.107Z,8.80
2022-11-05T14:56:18.244Z,8.76
2022-11-05T14:58:38.818Z,8.83
2022-11-05T15:00:50.601Z,8.69
2022-11-05T15:03:04.456Z,8.76
2022-11-05T15:05:39.611Z,8.70
2022-11-05T15:07:48.243Z,8.73
2022-11-05T15:10:07.150Z,8.70
2022-11-05T15:12:24.648Z,8.66
2022-11-05T15:14:38.749Z,8.70
2022-11-05T15:16:53.548Z,8.59
2022-11-05T15:19:07.753Z,8.54
2022-11-05T15:21:19.891Z,8.56
2022-11-05T15:23:34.158Z,8.54
2022-11-05T15:25:53.241Z,8.53
2022-11-05T15:28:08.575Z,8.52
2022-11-05T15:30:25.546Z,8.45
2022-11-05T15:32:38.467Z,8.44
2022-11-05T15:34:59.726Z,8.47
2022-11-05T15:37:25.327Z,8.39
2022-11-05T15:39:38.455Z,8.40
2022-11-05T15:41:47.894Z,8.49
2022-11-05T15:43:56.613Z,8.36
2022-11-05T15:46:07.418Z,8.36
2022-11-05T15:48:17.954Z,8.32
2022-11-05T15:50:29.003Z,8.41
2022-11-05T15:52:42.384Z,8.40
2022-11-05T15:55:10.579Z,8.41
2022-11-05T15:57:26.239Z,8.42
2022-11-05T15:59:36.523Z,8.38
2022-11-05T16:01:51.197Z,8.34
2022-11-05T16:04:05.762Z,8.36
2022-11-05T16:06:23.053Z,8.40
2022-11-05T16:08:36.277Z,8.35
2022-11-05T16:10:51.969Z,8.33
2022-11-05T16:13:00.049Z,8.28
2022-11-05T16:15:24.502Z,8.29
2022-11-05T16:17:40.646Z,8.25
2022-11-05T16:19:49.685Z,8.31
2022-11-05T16:22:00.705Z,8.30
2022-11-05T16:24:29.040Z,8.33
2022-11-05T16:29:15.132Z,8.29
2022-11-05T16:31:26.560Z,8.31
2022-11-05T16:33:37.329Z,8.25
2022-11-05T16:35:52.218Z,8.20
2022-11-05T16:38:06.593Z,8.27
2022-11-05T16:40:17.858Z,8.20
2022-11-05T16:42:42.497Z,8.13
2022-11-05T16:44:50.749Z,8.11
2022-11-05T16:46:58.738Z,8.08
2022-11-05T16:49:07.112Z,8.05
2022-11-05T16:51:16.706Z,8.20
2022-11-05T16:53:28.103Z,8.19
2022-11-05T16:55:37.652Z,8.26
2022-11-05T16:57:47.380Z,8.12
2022-11-05T16:59:58.342Z,8.12
2022-11-05T17:02:07.789Z,8.08
2022-11-05T17:04:20.472Z,8.03
2022-11-05T17:06:29.807Z,8.02
2022-11-05T17:08:41.134Z,7.94
2022-11-05T17:10:49.694Z,7.84
2022-11-05T17:12:58.310Z,7.77
2022-11-05T17:15:15.198Z,7.66
2022-11-05T17:17:24.484Z,7.65
2022-11-05T17:19:34.866Z,7.66
2022-11-05T17:21:46.144Z,7.53
2022-11-05T17:23:57.184Z,7.37
2022-11-05T17:26:07.694Z,7.27
2022-11-05T17:28:17.019Z,7.17
2022-11-05T17:30:26.032Z,7.05
2022-11-05T17:32:35.623Z,6.95
2022-11-05T17:34:46.637Z,6.93
2022-11-05T17:36:55.809Z,6.91
2022-11-05T17:39:12.262Z,6.74
2022-11-05T17:41:23.309Z,6.65
2022-11-05T17:43:34.817Z,6.53
2022-11-05T17:45:50.619Z,6.45
2022-11-05T17:47:58.754Z,6.38
2022-11-05T17:50:14.489Z,6.30
2022-11-05T17:52:22.698Z,6.24
2022-11-05T17:54:37.412Z,6.21
2022-11-05T17:56:47.268Z,6.13
2022-11-05T17:58:57.629Z,6.07
2022-11-05T18:01:05.812Z,5.96
2022-11-05T18:03:19.019Z,5.90
2022-11-05T18:05:28.389Z,5.87
2022-11-05T18:07:40.419Z,5.81
2022-11-05T18:09:51.712Z,5.78
2022-11-05T18:11:59.758Z,5.75
2022-11-05T18:14:11.505Z,5.67
2022-11-05T18:16:19.666Z,5.85
2022-11-05T18:18:27.940Z,5.95
2022-11-05T18:20:36.546Z,5.82
2022-11-05T18:22:47.418Z,5.76
2022-11-05T18:24:58.794Z,5.86
2022-11-05T18:27:07.481Z,5.99
2022-11-05T18:29:18.084Z,6.03
2022-11-05T18:31:26.385Z,5.98
2022-11-05T18:33:35.613Z,5.91
2022-11-05T18:35:44.715Z,5.83
2022-11-05T18:37:52.785Z,5.71
2022-11-05T18:40:04.797Z,5.68
2022-11-05T18:42:13.781Z,5.59
2022-11-05T18:44:23.083Z,5.46
2022-11-05T18:49:01.469Z,5.33
2022-11-05T18:51:11.480Z,5.30
2022-11-05T18:53:20.030Z,5.20
2022-11-05T18:55:30.711Z,5.16
2022-11-05T18:57:39.817Z,5.16
2022-11-05T18:59:48.889Z,5.22
2022-11-05T19:01:57.178Z,5.22
2022-11-05T19:04:05.604Z,5.24
2022-11-05T19:06:15.087Z,5.15
2022-11-05T19:08:23.451Z,5.22
2022-11-05T19:10:34.786Z,5.23
2022-11-05T19:12:43.073Z,5.15
2022-11-05T19:14:51.093Z,5.16
2022-11-05T19:16:59.546Z,5.21
2022-11-05T19:19:09.042Z,5.19
2022-11-05T19:21:20.367Z,5.01
2022-11-05T19:23:29.661Z,4.93
2022-11-05T19:25:40.602Z,4.93
2022-11-05T19:27:49.125Z,4.86
2022-11-05T19:29:57.807Z,4.96
2022-11-05T19:32:05.930Z,5.10
2022-11-05T19:34:14.984Z,5.22
2022-11-05T19:36:24.725Z,5.20
2022-11-05T19:38:33.325Z,5.10
2022-11-05T19:40:44.353Z,5.01
2022-11-05T19:42:52.942Z,5.04
2022-11-05T19:45:23.131Z,5.01
2022-11-05T19:47:29.970Z,4.94
2022-11-05T19:49:38.536Z,5.02
2022-11-05T19:51:46.757Z,5.08
2022-11-05T19:53:57.315Z,4.97
2022-11-05T19:56:13.293Z,4.92
2022-11-05T19:58:21.443Z,4.95
2022-11-05T20:00:30.216Z,5.04
2022-11-05T20:02:39.032Z,5.04
2022-11-05T20:04:47.258Z,5.04
2022-11-05T20:06:55.480Z,5.02
2022-11-05T20:09:22.965Z,5.03
2022-11-05T20:11:36.251Z,4.92
2022-11-05T20:13:44.791Z,4.87
2022-11-05T20:15:53.231Z,4.82
2022-11-05T20:18:01.239Z,4.78
2022-11-05T20:20:12.123Z,4.71
2022-11-05T20:22:20.321Z,4.65
2022-11-05T20:24:29.743Z,4.67
2022-11-05T20:26:40.712Z,4.69
2022-11-05T20:28:54.818Z,4.68
2022-11-05T20:31:02.828Z,4.80
2022-11-05T20:33:12.263Z,4.74
2022-11-05T20:35:20.400Z,4.72
2022-11-05T20:37:33.361Z,4.81
2022-11-05T20:39:44.572Z,5.02
2022-11-05T20:41:57.011Z,4.99
2022-11-05T20:44:05.074Z,5.00
2022-11-05T20:46:18.026Z,4.95
2022-11-05T20:48:27.082Z,4.87
2022-11-05T20:50:37.629Z,4.78
2022-11-05T20:52:46.195Z,4.68
2022-11-05T20:54:54.321Z,4.72
2022-11-05T20:57:08.969Z,4.79
2022-11-05T20:59:18.509Z,4.83
2022-11-05T21:01:28.819Z,4.82
2022-11-05T21:03:39.106Z,4.91
2022-11-05T21:05:50.147Z,4.85
2022-11-05T21:07:58.191Z,4.84
2022-11-05T21:10:06.707Z,4.80
2022-11-05T21:12:18.693Z,4.87
2022-11-05T21:14:26.936Z,4.87
2022-11-05T21:16:35.530Z,4.85
2022-11-05T21:18:44.192Z,4.89
2022-11-05T21:20:53.333Z,4.84
2022-11-05T21:23:01.567Z,4.81
2022-11-05T21:25:11.690Z,4.72
2022-11-05T21:27:22.672Z,4.64
2022-11-05T21:29:31.526Z,4.74
2022-11-05T21:31:40.027Z,4.68
2022-11-05T21:33:54.827Z,4.62
2022-11-05T21:36:09.356Z,4.47
2022-11-05T21:38:19.446Z,4.48
2022-11-05T21:40:27.755Z,4.36
2022-11-05T21:42:38.799Z,4.31
2022-11-05T21:44:46.929Z,4.25
2022-11-05T21:46:59.684Z,4.19
2022-11-05T21:49:08.056Z,4.13
2022-11-05T21:51:28.911Z,4.07
2022-11-05T21:53:49.465Z,4.03
2022-11-05T21:56:10.097Z,4.05
2022-11-05T21:58:33.459Z,3.94
2022-11-05T22:00:41.733Z,3.95
2022-11-05T22:02:49.985Z,3.90
2022-11-05T22:05:00.595Z,3.85
2022-11-05T22:07:11.165Z,3.79
2022-11-05T22:09:19.137Z,3.78
2022-11-05T22:11:27.855Z,3.65
2022-11-05T22:13:40.853Z,3.56
2022-11-05T22:15:57.669Z,3.48
2022-11-05T22:18:06.012Z,3.51
2022-11-05T22:20:14.787Z,3.44
2022-11-05T22:22:23.889Z,3.37
2022-11-05T22:24:33.124Z,3.28
2022-11-05T22:26:43.328Z,3.24
2022-11-05T22:28:56.131Z,3.11
2022-11-05T22:31:04.356Z,3.08
2022-11-05T22:33:14.130Z,3.07
2022-11-05T22:35:22.436Z,3.08
2022-11-05T22:37:30.861Z,3.03
2022-11-05T22:39:39.041Z,3.01
2022-11-05T22:41:47.465Z,3.04
2022-11-05T22:43:58.903Z,2.97
2022-11-05T22:46:08.266Z,2.99
2022-11-05T22:48:16.633Z,3.03
2022-11-05T22:50:24.816Z,3.00
2022-11-05T22:52:33.119Z,2.98
2022-11-05T22:54:41.844Z,2.98
2022-11-05T22:56:50.448Z,2.93
2022-11-05T22:59:02.152Z,3.01
2022-11-05T23:01:13.643Z,2.94
2022-11-05T23:03:21.642Z,2.92
2022-11-05T23:05:30.535Z,2.89
2022-11-05T23:07:53.083Z,2.88
2022-11-05T23:10:13.655Z,2.84
2022-11-05T23:12:25.895Z,2.83
2022-11-05T23:14:38.184Z,2.88
2022-11-05T23:16:59.350Z,2.90
2022-11-05T23:19:19.767Z,2.85
2022-11-05T23:21:40.483Z,2.82
2022-11-05T23:24:00.767Z,2.87
2022-11-05T23:26:29.084Z,2.86
2022-11-05T23:28:37.260Z,2.80
2022-11-05T23:31:00.419Z,2.79
2022-11-05T23:33:08.585Z,2.83
2022-11-05T23:35:17.651Z,2.84
2022-11-05T23:37:49.546Z,2.77
2022-11-05T23:39:57.745Z,2.79
2022-11-05T23:42:18.126Z,2.82
2022-11-05T23:44:38.704Z,2.86
2022-11-05T23:47:01.822Z,2.86
2022-11-05T23:49:11.816Z,2.82
2022-11-05T23:51:19.969Z,2.78
2022-11-05T23:53:29.177Z,2.89
2022-11-05T23:55:38.698Z,2.85
2022-11-05T23:57:46.944Z,2.82
2022-11-05T23:59:54.954Z,2.81
